sensor_id;sensor_type;location;lat;lon;timestamp;P1;durP1;ratioP1;P2;durP2;ratioP2
60993;SDS011;47611;54.932;73.338;2022-07-29T00:01:25;14.55;;;10.60;;
60993;SDS011;47611;54.932;73.338;2022-07-29T00:03:51;13.35;;;10.05;;
60993;SDS011;47611;54.932;73.338;2022-07-29T00:06:17;13.68;;;10.55;;
60993;SDS011;47611;54.932;73.338;2022-07-29T00:08:43;16.88;;;11.20;;
60993;SDS011;47611;54.932;73.338;2022-07-29T00:11:15;15.40;;;11.07;;
60993;SDS011;47611;54.932;73.338;2022-07-29T00:13:46;13.52;;;9.95;;
60993;SDS011;47611;54.932;73.338;2022-07-29T00:16:13;12.50;;;9.75;;
60993;SDS011;47611;54.932;73.338;2022-07-29T00:18:44;13.38;;;9.88;;
60993;SDS011;47611;54.932;73.338;2022-07-29T00:21:14;13.35;;;9.68;;
60993;SDS011;47611;54.932;73.338;2022-07-29T00:23:40;12.43;;;9.35;;
60993;SDS011;47611;54.932;73.338;2022-07-29T00:26:07;12.35;;;9.45;;
60993;SDS011;47611;54.932;73.338;2022-07-29T00:28:34;12.02;;;9.35;;
60993;SDS011;47611;54.932;73.338;2022-07-29T00:31:00;12.88;;;9.70;;
60993;SDS011;47611;54.932;73.338;2022-07-29T00:33:26;11.98;;;9.57;;
60993;SDS011;47611;54.932;73.338;2022-07-29T00:35:57;12.30;;;9.18;;
60993;SDS011;47611;54.932;73.338;2022-07-29T00:38:29;13.10;;;10.00;;
60993;SDS011;47611;54.932;73.338;2022-07-29T00:40:55;15.88;;;11.48;;
60993;SDS011;47611;54.932;73.338;2022-07-29T00:43:26;13.10;;;9.80;;
60993;SDS011;47611;54.932;73.338;2022-07-29T00:45:52;10.88;;;8.23;;
60993;SDS011;47611;54.932;73.338;2022-07-29T00:48:18;10.85;;;8.30;;
60993;SDS011;47611;54.932;73.338;2022-07-29T00:50:55;10.32;;;7.43;;
60993;SDS011;47611;54.932;73.338;2022-07-29T00:53:24;8.40;;;6.90;;
60993;SDS011;47611;54.932;73.338;2022-07-29T00:55:50;9.07;;;7.15;;
60993;SDS011;47611;54.932;73.338;2022-07-29T00:58:17;10.70;;;7.07;;
60993;SDS011;47611;54.932;73.338;2022-07-29T01:00:45;9.57;;;7.07;;
60993;SDS011;47611;54.932;73.338;2022-07-29T01:03:11;7.97;;;6.47;;
60993;SDS011;47611;54.932;73.338;2022-07-29T01:05:38;7.10;;;5.30;;
60993;SDS011;47611;54.932;73.338;2022-07-29T01:08:12;6.82;;;5.70;;
60993;SDS011;47611;54.932;73.338;2022-07-29T01:10:41;6.55;;;5.13;;
60993;SDS011;47611;54.932;73.338;2022-07-29T01:13:13;6.40;;;5.05;;
60993;SDS011;47611;54.932;73.338;2022-07-29T01:15:46;6.53;;;4.88;;
60993;SDS011;47611;54.932;73.338;2022-07-29T01:18:20;6.00;;;5.00;;
60993;SDS011;47611;54.932;73.338;2022-07-29T01:29:54;7.32;;;4.55;;
60993;SDS011;47611;54.932;73.338;2022-07-29T01:32:33;6.40;;;4.35;;
60993;SDS011;47611;54.932;73.338;2022-07-29T01:40:43;6.55;;;5.18;;
60993;SDS011;47611;54.932;73.338;2022-07-29T01:43:17;6.75;;;5.00;;
60993;SDS011;47611;54.932;73.338;2022-07-29T01:46:02;7.70;;;5.32;;
60993;SDS011;47611;54.932;73.338;2022-07-29T01:51:16;7.15;;;5.35;;
60993;SDS011;47611;54.932;73.338;2022-07-29T01:53:49;10.63;;;6.10;;
60993;SDS011;47611;54.932;73.338;2022-07-29T01:58:58;8.75;;;6.03;;
60993;SDS011;47611;54.932;73.338;2022-07-29T02:01:25;11.63;;;7.20;;
60993;SDS011;47611;54.932;73.338;2022-07-29T02:04:03;12.20;;;8.13;;
60993;SDS011;47611;54.932;73.338;2022-07-29T02:06:30;13.00;;;8.10;;
60993;SDS011;47611;54.932;73.338;2022-07-29T02:08:59;13.98;;;8.43;;
60993;SDS011;47611;54.932;73.338;2022-07-29T02:11:29;12.00;;;8.57;;
60993;SDS011;47611;54.932;73.338;2022-07-29T02:14:06;12.50;;;8.70;;
60993;SDS011;47611;54.932;73.338;2022-07-29T02:16:35;12.60;;;8.30;;
60993;SDS011;47611;54.932;73.338;2022-07-29T02:19:04;11.95;;;8.63;;
60993;SDS011;47611;54.932;73.338;2022-07-29T02:21:34;14.85;;;10.00;;
60993;SDS011;47611;54.932;73.338;2022-07-29T02:24:01;30.73;;;17.38;;
60993;SDS011;47611;54.932;73.338;2022-07-29T02:26:30;37.28;;;21.60;;
60993;SDS011;47611;54.932;73.338;2022-07-29T02:28:59;74.13;;;34.08;;
60993;SDS011;47611;54.932;73.338;2022-07-29T02:31:36;50.80;;;28.05;;
60993;SDS011;47611;54.932;73.338;2022-07-29T02:34:06;41.58;;;22.27;;
60993;SDS011;47611;54.932;73.338;2022-07-29T02:36:34;46.20;;;22.88;;
60993;SDS011;47611;54.932;73.338;2022-07-29T02:39:06;41.05;;;21.30;;
60993;SDS011;47611;54.932;73.338;2022-07-29T02:41:42;41.47;;;21.98;;
60993;SDS011;47611;54.932;73.338;2022-07-29T02:44:15;21.88;;;14.55;;
60993;SDS011;47611;54.932;73.338;2022-07-29T02:49:41;28.95;;;14.88;;
60993;SDS011;47611;54.932;73.338;2022-07-29T02:52:32;37.47;;;25.80;;
60993;SDS011;47611;54.932;73.338;2022-07-29T02:55:09;11.95;;;7.60;;
60993;SDS011;47611;54.932;73.338;2022-07-29T02:57:57;10.15;;;7.10;;
60993;SDS011;47611;54.932;73.338;2022-07-29T03:00:39;10.02;;;6.90;;
60993;SDS011;47611;54.932;73.338;2022-07-29T03:03:07;10.52;;;6.97;;
60993;SDS011;47611;54.932;73.338;2022-07-29T03:05:38;10.18;;;6.90;;
60993;SDS011;47611;54.932;73.338;2022-07-29T03:08:05;10.02;;;7.38;;
60993;SDS011;47611;54.932;73.338;2022-07-29T03:10:34;10.63;;;7.13;;
60993;SDS011;47611;54.932;73.338;2022-07-29T03:13:14;10.23;;;7.50;;
60993;SDS011;47611;54.932;73.338;2022-07-29T03:15:42;9.38;;;6.60;;
60993;SDS011;47611;54.932;73.338;2022-07-29T03:18:10;8.30;;;5.85;;
60993;SDS011;47611;54.932;73.338;2022-07-29T03:20:37;9.30;;;6.35;;
60993;SDS011;47611;54.932;73.338;2022-07-29T03:23:04;6.32;;;5.47;;
60993;SDS011;47611;54.932;73.338;2022-07-29T03:25:30;8.75;;;5.07;;
60993;SDS011;47611;54.932;73.338;2022-07-29T03:27:57;6.40;;;5.30;;
60993;SDS011;47611;54.932;73.338;2022-07-29T03:30:23;8.00;;;4.90;;
60993;SDS011;47611;54.932;73.338;2022-07-29T03:32:54;6.55;;;5.30;;
60993;SDS011;47611;54.932;73.338;2022-07-29T03:35:20;5.32;;;4.80;;
60993;SDS011;47611;54.932;73.338;2022-07-29T03:37:46;5.72;;;4.55;;
60993;SDS011;47611;54.932;73.338;2022-07-29T03:40:17;4.82;;;4.32;;
60993;SDS011;47611;54.932;73.338;2022-07-29T03:42:58;5.50;;;4.43;;
60993;SDS011;47611;54.932;73.338;2022-07-29T03:45:26;6.70;;;4.75;;
60993;SDS011;47611;54.932;73.338;2022-07-29T03:48:00;4.43;;;3.85;;
60993;SDS011;47611;54.932;73.338;2022-07-29T03:50:31;4.63;;;3.55;;
60993;SDS011;47611;54.932;73.338;2022-07-29T03:52:59;5.38;;;3.92;;
60993;SDS011;47611;54.932;73.338;2022-07-29T03:55:26;4.78;;;4.03;;
60993;SDS011;47611;54.932;73.338;2022-07-29T03:57:57;3.85;;;3.33;;
60993;SDS011;47611;54.932;73.338;2022-07-29T04:00:27;3.80;;;3.10;;
60993;SDS011;47611;54.932;73.338;2022-07-29T04:02:54;4.00;;;3.00;;
60993;SDS011;47611;54.932;73.338;2022-07-29T04:05:20;4.22;;;3.10;;
60993;SDS011;47611;54.932;73.338;2022-07-29T04:07:47;3.88;;;3.13;;
60993;SDS011;47611;54.932;73.338;2022-07-29T04:10:16;4.10;;;3.40;;
60993;SDS011;47611;54.932;73.338;2022-07-29T04:12:44;5.32;;;3.38;;
60993;SDS011;47611;54.932;73.338;2022-07-29T04:15:10;5.30;;;4.00;;
60993;SDS011;47611;54.932;73.338;2022-07-29T04:17:37;5.45;;;4.28;;
60993;SDS011;47611;54.932;73.338;2022-07-29T04:20:03;6.05;;;4.72;;
60993;SDS011;47611;54.932;73.338;2022-07-29T04:22:30;7.85;;;5.40;;
60993;SDS011;47611;54.932;73.338;2022-07-29T04:24:56;8.48;;;5.70;;
60993;SDS011;47611;54.932;73.338;2022-07-29T04:27:23;9.23;;;6.43;;
60993;SDS011;47611;54.932;73.338;2022-07-29T04:29:49;11.30;;;8.45;;
60993;SDS011;47611;54.932;73.338;2022-07-29T04:32:15;12.25;;;8.50;;
60993;SDS011;47611;54.932;73.338;2022-07-29T04:34:46;12.75;;;9.38;;
60993;SDS011;47611;54.932;73.338;2022-07-29T04:37:23;15.57;;;10.25;;
60993;SDS011;47611;54.932;73.338;2022-07-29T04:39:54;14.63;;;11.10;;
60993;SDS011;47611;54.932;73.338;2022-07-29T04:42:26;17.20;;;12.60;;
60993;SDS011;47611;54.932;73.338;2022-07-29T04:44:56;15.00;;;12.02;;
60993;SDS011;47611;54.932;73.338;2022-07-29T04:47:27;16.85;;;12.55;;
60993;SDS011;47611;54.932;73.338;2022-07-29T04:49:53;15.02;;;11.73;;
60993;SDS011;47611;54.932;73.338;2022-07-29T04:52:22;17.95;;;12.80;;
60993;SDS011;47611;54.932;73.338;2022-07-29T04:54:52;17.90;;;13.02;;
60993;SDS011;47611;54.932;73.338;2022-07-29T04:57:18;17.52;;;13.32;;
60993;SDS011;47611;54.932;73.338;2022-07-29T04:59:48;19.85;;;13.88;;
60993;SDS011;47611;54.932;73.338;2022-07-29T05:02:14;21.42;;;14.13;;
60993;SDS011;47611;54.932;73.338;2022-07-29T05:04:40;25.85;;;16.20;;
60993;SDS011;47611;54.932;73.338;2022-07-29T05:07:07;18.52;;;13.77;;
60993;SDS011;47611;54.932;73.338;2022-07-29T05:09:33;19.58;;;14.38;;
60993;SDS011;47611;54.932;73.338;2022-07-29T05:11:59;17.58;;;14.60;;
60993;SDS011;47611;54.932;73.338;2022-07-29T05:14:25;20.08;;;14.07;;
60993;SDS011;47611;54.932;73.338;2022-07-29T05:16:51;19.58;;;14.25;;
60993;SDS011;47611;54.932;73.338;2022-07-29T05:19:22;18.50;;;14.25;;
60993;SDS011;47611;54.932;73.338;2022-07-29T05:21:49;17.42;;;14.30;;
60993;SDS011;47611;54.932;73.338;2022-07-29T05:24:21;18.30;;;14.40;;
60993;SDS011;47611;54.932;73.338;2022-07-29T05:26:47;17.77;;;14.35;;
60993;SDS011;47611;54.932;73.338;2022-07-29T05:29:13;19.60;;;14.60;;
60993;SDS011;47611;54.932;73.338;2022-07-29T05:31:40;19.55;;;13.85;;
60993;SDS011;47611;54.932;73.338;2022-07-29T05:34:08;21.50;;;13.40;;
60993;SDS011;47611;54.932;73.338;2022-07-29T05:36:39;16.65;;;13.45;;
60993;SDS011;47611;54.932;73.338;2022-07-29T05:39:05;15.40;;;13.02;;
60993;SDS011;47611;54.932;73.338;2022-07-29T05:41:40;17.10;;;13.35;;
60993;SDS011;47611;54.932;73.338;2022-07-29T05:44:07;19.55;;;14.73;;
60993;SDS011;47611;54.932;73.338;2022-07-29T05:46:33;17.90;;;13.88;;
60993;SDS011;47611;54.932;73.338;2022-07-29T05:48:59;17.75;;;13.43;;
60993;SDS011;47611;54.932;73.338;2022-07-29T05:51:35;20.60;;;14.15;;
60993;SDS011;47611;54.932;73.338;2022-07-29T05:54:04;16.83;;;13.80;;
60993;SDS011;47611;54.932;73.338;2022-07-29T05:56:30;20.65;;;13.18;;
60993;SDS011;47611;54.932;73.338;2022-07-29T05:58:56;15.93;;;12.38;;
60993;SDS011;47611;54.932;73.338;2022-07-29T06:01:28;16.57;;;12.70;;
60993;SDS011;47611;54.932;73.338;2022-07-29T06:04:05;15.13;;;13.25;;
60993;SDS011;47611;54.932;73.338;2022-07-29T06:06:32;21.45;;;15.02;;
60993;SDS011;47611;54.932;73.338;2022-07-29T06:09:00;18.13;;;12.95;;
60993;SDS011;47611;54.932;73.338;2022-07-29T06:11:27;17.77;;;12.82;;
60993;SDS011;47611;54.932;73.338;2022-07-29T06:14:03;22.98;;;15.80;;
60993;SDS011;47611;54.932;73.338;2022-07-29T06:16:29;20.92;;;15.02;;
60993;SDS011;47611;54.932;73.338;2022-07-29T06:18:56;27.70;;;17.35;;
60993;SDS011;47611;54.932;73.338;2022-07-29T06:21:22;28.23;;;15.65;;
60993;SDS011;47611;54.932;73.338;2022-07-29T06:23:48;26.73;;;16.58;;
60993;SDS011;47611;54.932;73.338;2022-07-29T06:26:14;19.77;;;15.60;;
60993;SDS011;47611;54.932;73.338;2022-07-29T06:28:40;14.70;;;13.07;;
60993;SDS011;47611;54.932;73.338;2022-07-29T06:31:06;15.70;;;13.00;;
60993;SDS011;47611;54.932;73.338;2022-07-29T06:33:33;18.35;;;14.88;;
60993;SDS011;47611;54.932;73.338;2022-07-29T06:35:59;17.52;;;12.90;;
60993;SDS011;47611;54.932;73.338;2022-07-29T06:38:25;17.40;;;12.73;;
60993;SDS011;47611;54.932;73.338;2022-07-29T06:40:52;15.27;;;11.95;;
60993;SDS011;47611;54.932;73.338;2022-07-29T06:43:36;21.38;;;13.45;;
60993;SDS011;47611;54.932;73.338;2022-07-29T06:46:05;14.07;;;12.07;;
60993;SDS011;47611;54.932;73.338;2022-07-29T06:48:40;28.52;;;16.67;;
60993;SDS011;47611;54.932;73.338;2022-07-29T06:51:08;19.95;;;14.02;;
60993;SDS011;47611;54.932;73.338;2022-07-29T06:53:35;24.25;;;15.80;;
60993;SDS011;47611;54.932;73.338;2022-07-29T06:56:03;22.40;;;14.82;;
60993;SDS011;47611;54.932;73.338;2022-07-29T06:58:31;22.45;;;15.13;;
60993;SDS011;47611;54.932;73.338;2022-07-29T07:01:00;23.92;;;13.85;;
60993;SDS011;47611;54.932;73.338;2022-07-29T07:03:28;21.60;;;12.88;;
60993;SDS011;47611;54.932;73.338;2022-07-29T07:05:55;17.75;;;13.00;;
60993;SDS011;47611;54.932;73.338;2022-07-29T07:08:22;17.67;;;12.75;;
60993;SDS011;47611;54.932;73.338;2022-07-29T07:10:49;22.23;;;13.20;;
60993;SDS011;47611;54.932;73.338;2022-07-29T07:13:21;22.95;;;13.60;;
60993;SDS011;47611;54.932;73.338;2022-07-29T07:15:48;25.63;;;14.88;;
60993;SDS011;47611;54.932;73.338;2022-07-29T07:18:15;21.73;;;14.07;;
60993;SDS011;47611;54.932;73.338;2022-07-29T07:20:41;22.30;;;14.70;;
60993;SDS011;47611;54.932;73.338;2022-07-29T07:23:08;17.02;;;12.82;;
60993;SDS011;47611;54.932;73.338;2022-07-29T07:25:34;18.67;;;13.50;;
60993;SDS011;47611;54.932;73.338;2022-07-29T07:28:01;15.52;;;12.55;;
60993;SDS011;47611;54.932;73.338;2022-07-29T07:30:27;18.60;;;13.80;;
60993;SDS011;47611;54.932;73.338;2022-07-29T07:32:54;21.80;;;13.70;;
60993;SDS011;47611;54.932;73.338;2022-07-29T07:35:21;19.98;;;13.18;;
60993;SDS011;47611;54.932;73.338;2022-07-29T07:37:47;17.85;;;13.00;;
60993;SDS011;47611;54.932;73.338;2022-07-29T07:40:19;21.03;;;11.90;;
60993;SDS011;47611;54.932;73.338;2022-07-29T07:42:45;17.35;;;12.57;;
60993;SDS011;47611;54.932;73.338;2022-07-29T07:45:11;20.95;;;13.02;;
60993;SDS011;47611;54.932;73.338;2022-07-29T07:48:37;18.92;;;12.45;;
60993;SDS011;47611;54.932;73.338;2022-07-29T07:52:03;17.02;;;13.35;;
60993;SDS011;47611;54.932;73.338;2022-07-29T07:55:30;22.80;;;12.80;;
60993;SDS011;47611;54.932;73.338;2022-07-29T07:59:05;16.40;;;12.02;;
60993;SDS011;47611;54.932;73.338;2022-07-29T08:02:49;23.00;;;13.70;;
60993;SDS011;47611;54.932;73.338;2022-07-29T08:06:17;16.42;;;11.57;;
60993;SDS011;47611;54.932;73.338;2022-07-29T08:09:13;13.07;;;11.40;;
60993;SDS011;47611;54.932;73.338;2022-07-29T08:12:39;13.52;;;11.15;;
60993;SDS011;47611;54.932;73.338;2022-07-29T08:15:55;16.42;;;11.93;;
60993;SDS011;47611;54.932;73.338;2022-07-29T08:18:41;16.95;;;12.13;;
60993;SDS011;47611;54.932;73.338;2022-07-29T08:21:08;24.98;;;13.75;;
60993;SDS011;47611;54.932;73.338;2022-07-29T08:23:39;19.90;;;12.05;;
60993;SDS011;47611;54.932;73.338;2022-07-29T08:26:16;16.50;;;11.98;;
60993;SDS011;47611;54.932;73.338;2022-07-29T08:29:17;14.40;;;11.70;;
60993;SDS011;47611;54.932;73.338;2022-07-29T08:31:54;20.17;;;11.80;;
60993;SDS011;47611;54.932;73.338;2022-07-29T08:34:20;20.33;;;11.35;;
60993;SDS011;47611;54.932;73.338;2022-07-29T08:36:56;18.33;;;11.25;;
60993;SDS011;47611;54.932;73.338;2022-07-29T08:39:33;14.55;;;10.55;;
60993;SDS011;47611;54.932;73.338;2022-07-29T08:42:00;14.02;;;11.40;;
60993;SDS011;47611;54.932;73.338;2022-07-29T08:44:36;11.25;;;10.02;;
60993;SDS011;47611;54.932;73.338;2022-07-29T08:47:03;15.60;;;12.93;;
60993;SDS011;47611;54.932;73.338;2022-07-29T08:49:34;14.63;;;11.68;;
60993;SDS011;47611;54.932;73.338;2022-07-29T08:52:01;19.85;;;12.27;;
60993;SDS011;47611;54.932;73.338;2022-07-29T08:54:39;16.55;;;12.18;;
60993;SDS011;47611;54.932;73.338;2022-07-29T08:57:09;19.10;;;12.73;;
60993;SDS011;47611;54.932;73.338;2022-07-29T08:59:49;15.23;;;11.73;;
60993;SDS011;47611;54.932;73.338;2022-07-29T09:02:20;12.98;;;10.68;;
60993;SDS011;47611;54.932;73.338;2022-07-29T09:04:48;12.90;;;11.63;;
60993;SDS011;47611;54.932;73.338;2022-07-29T09:07:17;14.48;;;11.55;;
60993;SDS011;47611;54.932;73.338;2022-07-29T09:09:50;11.93;;;10.80;;
60993;SDS011;47611;54.932;73.338;2022-07-29T09:12:16;14.95;;;11.60;;
60993;SDS011;47611;54.932;73.338;2022-07-29T09:14:43;13.32;;;11.98;;
60993;SDS011;47611;54.932;73.338;2022-07-29T09:17:09;15.48;;;11.63;;
60993;SDS011;47611;54.932;73.338;2022-07-29T09:19:36;12.93;;;11.60;;
60993;SDS011;47611;54.932;73.338;2022-07-29T09:22:06;15.32;;;11.35;;
60993;SDS011;47611;54.932;73.338;2022-07-29T09:24:36;19.13;;;13.18;;
60993;SDS011;47611;54.932;73.338;2022-07-29T09:29:39;20.10;;;13.55;;
60993;SDS011;47611;54.932;73.338;2022-07-29T09:32:12;13.55;;;11.43;;
60993;SDS011;47611;54.932;73.338;2022-07-29T09:34:38;14.20;;;10.68;;
60993;SDS011;47611;54.932;73.338;2022-07-29T09:37:04;24.50;;;13.82;;
60993;SDS011;47611;54.932;73.338;2022-07-29T09:39:35;21.20;;;12.70;;
60993;SDS011;47611;54.932;73.338;2022-07-29T09:42:04;13.88;;;11.02;;
60993;SDS011;47611;54.932;73.338;2022-07-29T09:44:45;16.13;;;11.80;;
60993;SDS011;47611;54.932;73.338;2022-07-29T09:47:45;15.95;;;13.10;;
60993;SDS011;47611;54.932;73.338;2022-07-29T09:50:17;14.20;;;11.93;;
60993;SDS011;47611;54.932;73.338;2022-07-29T09:52:49;13.40;;;11.20;;
60993;SDS011;47611;54.932;73.338;2022-07-29T09:55:17;12.75;;;11.25;;
60993;SDS011;47611;54.932;73.338;2022-07-29T09:57:45;13.20;;;11.00;;
60993;SDS011;47611;54.932;73.338;2022-07-29T10:00:13;12.40;;;11.10;;
60993;SDS011;47611;54.932;73.338;2022-07-29T10:02:42;15.30;;;11.02;;
60993;SDS011;47611;54.932;73.338;2022-07-29T10:05:20;12.35;;;10.90;;
60993;SDS011;47611;54.932;73.338;2022-07-29T10:07:54;14.70;;;11.18;;
60993;SDS011;47611;54.932;73.338;2022-07-29T10:10:25;12.80;;;10.68;;
60993;SDS011;47611;54.932;73.338;2022-07-29T10:12:59;15.60;;;11.32;;
60993;SDS011;47611;54.932;73.338;2022-07-29T10:15:34;14.02;;;11.50;;
60993;SDS011;47611;54.932;73.338;2022-07-29T10:18:06;12.77;;;11.43;;
60993;SDS011;47611;54.932;73.338;2022-07-29T10:20:35;21.75;;;13.45;;
60993;SDS011;47611;54.932;73.338;2022-07-29T10:23:01;19.38;;;12.93;;
60993;SDS011;47611;54.932;73.338;2022-07-29T10:25:28;23.20;;;12.23;;
60993;SDS011;47611;54.932;73.338;2022-07-29T10:27:54;15.48;;;11.88;;
60993;SDS011;47611;54.932;73.338;2022-07-29T10:30:22;12.30;;;10.98;;
60993;SDS011;47611;54.932;73.338;2022-07-29T10:38:52;15.38;;;12.50;;
60993;SDS011;47611;54.932;73.338;2022-07-29T10:44:13;21.73;;;12.85;;
60993;SDS011;47611;54.932;73.338;2022-07-29T10:46:44;14.02;;;12.20;;
60993;SDS011;47611;54.932;73.338;2022-07-29T10:49:12;16.85;;;13.20;;
60993;SDS011;47611;54.932;73.338;2022-07-29T10:51:55;15.10;;;11.67;;
60993;SDS011;47611;54.932;73.338;2022-07-29T10:57:27;13.07;;;11.13;;
60993;SDS011;47611;54.932;73.338;2022-07-29T11:07:23;11.90;;;10.57;;
60993;SDS011;47611;54.932;73.338;2022-07-29T11:15:21;13.60;;;11.25;;
60993;SDS011;47611;54.932;73.338;2022-07-29T11:28:36;13.38;;;10.70;;
60993;SDS011;47611;54.932;73.338;2022-07-29T11:31:34;12.18;;;10.27;;
60993;SDS011;47611;54.932;73.338;2022-07-29T11:34:26;11.95;;;10.60;;
60993;SDS011;47611;54.932;73.338;2022-07-29T11:44:57;14.32;;;11.93;;
60993;SDS011;47611;54.932;73.338;2022-07-29T11:47:24;15.05;;;12.38;;
60993;SDS011;47611;54.932;73.338;2022-07-29T11:49:51;15.45;;;11.18;;
60993;SDS011;47611;54.932;73.338;2022-07-29T11:52:18;19.33;;;10.10;;
60993;SDS011;47611;54.932;73.338;2022-07-29T11:54:50;12.07;;;9.82;;
60993;SDS011;47611;54.932;73.338;2022-07-29T11:57:17;13.93;;;10.15;;
60993;SDS011;47611;54.932;73.338;2022-07-29T11:59:45;14.70;;;10.18;;
60993;SDS011;47611;54.932;73.338;2022-07-29T12:02:13;12.40;;;9.32;;
60993;SDS011;47611;54.932;73.338;2022-07-29T12:04:53;12.23;;;9.77;;
60993;SDS011;47611;54.932;73.338;2022-07-29T12:07:31;13.45;;;9.27;;
60993;SDS011;47611;54.932;73.338;2022-07-29T12:09:59;10.52;;;9.43;;
60993;SDS011;47611;54.932;73.338;2022-07-29T12:12:26;10.52;;;9.25;;
60993;SDS011;47611;54.932;73.338;2022-07-29T12:14:52;11.23;;;9.10;;
60993;SDS011;47611;54.932;73.338;2022-07-29T12:17:27;10.85;;;9.65;;
60993;SDS011;47611;54.932;73.338;2022-07-29T12:19:58;10.93;;;9.82;;
60993;SDS011;47611;54.932;73.338;2022-07-29T12:22:26;12.52;;;9.32;;
60993;SDS011;47611;54.932;73.338;2022-07-29T12:24:54;9.88;;;8.82;;
60993;SDS011;47611;54.932;73.338;2022-07-29T12:27:22;9.63;;;8.63;;
60993;SDS011;47611;54.932;73.338;2022-07-29T12:29:58;10.93;;;8.98;;
60993;SDS011;47611;54.932;73.338;2022-07-29T12:32:37;10.63;;;9.02;;
60993;SDS011;47611;54.932;73.338;2022-07-29T12:37:42;10.98;;;9.55;;
60993;SDS011;47611;54.932;73.338;2022-07-29T12:40:20;10.65;;;9.27;;
60993;SDS011;47611;54.932;73.338;2022-07-29T12:43:04;10.55;;;8.45;;
60993;SDS011;47611;54.932;73.338;2022-07-29T12:45:38;9.40;;;8.45;;
60993;SDS011;47611;54.932;73.338;2022-07-29T12:48:10;14.25;;;9.32;;
60993;SDS011;47611;54.932;73.338;2022-07-29T12:50:51;11.77;;;9.63;;
60993;SDS011;47611;54.932;73.338;2022-07-29T12:53:27;13.15;;;7.97;;
60993;SDS011;47611;54.932;73.338;2022-07-29T12:55:55;8.82;;;7.93;;
60993;SDS011;47611;54.932;73.338;2022-07-29T12:58:34;9.68;;;8.50;;
60993;SDS011;47611;54.932;73.338;2022-07-29T13:01:07;8.88;;;7.57;;
60993;SDS011;47611;54.932;73.338;2022-07-29T13:03:57;11.18;;;7.75;;
60993;SDS011;47611;54.932;73.338;2022-07-29T13:11:43;8.48;;;7.60;;
60993;SDS011;47611;54.932;73.338;2022-07-29T13:14:14;8.43;;;7.63;;
60993;SDS011;47611;54.932;73.338;2022-07-29T13:19:38;10.05;;;7.68;;
60993;SDS011;47611;54.932;73.338;2022-07-29T13:22:07;8.13;;;7.25;;
60993;SDS011;47611;54.932;73.338;2022-07-29T13:24:44;11.68;;;7.78;;
60993;SDS011;47611;54.932;73.338;2022-07-29T13:27:22;9.60;;;7.25;;
60993;SDS011;47611;54.932;73.338;2022-07-29T13:29:50;8.65;;;6.60;;
60993;SDS011;47611;54.932;73.338;2022-07-29T13:32:18;8.95;;;6.55;;
60993;SDS011;47611;54.932;73.338;2022-07-29T13:34:45;7.05;;;6.35;;
60993;SDS011;47611;54.932;73.338;2022-07-29T13:37:11;8.98;;;7.03;;
60993;SDS011;47611;54.932;73.338;2022-07-29T13:39:38;10.65;;;6.50;;
60993;SDS011;47611;54.932;73.338;2022-07-29T13:42:04;10.82;;;6.57;;
60993;SDS011;47611;54.932;73.338;2022-07-29T13:44:32;9.15;;;6.90;;
60993;SDS011;47611;54.932;73.338;2022-07-29T13:46:58;12.50;;;6.90;;
60993;SDS011;47611;54.932;73.338;2022-07-29T13:49:25;8.75;;;7.28;;
60993;SDS011;47611;54.932;73.338;2022-07-29T13:51:53;12.32;;;7.07;;
60993;SDS011;47611;54.932;73.338;2022-07-29T13:54:20;9.60;;;7.13;;
60993;SDS011;47611;54.932;73.338;2022-07-29T13:56:54;10.32;;;6.20;;
60993;SDS011;47611;54.932;73.338;2022-07-29T13:59:30;9.68;;;6.32;;
60993;SDS011;47611;54.932;73.338;2022-07-29T14:01:57;9.50;;;8.00;;
60993;SDS011;47611;54.932;73.338;2022-07-29T14:04:25;9.98;;;7.18;;
60993;SDS011;47611;54.932;73.338;2022-07-29T14:06:51;14.73;;;7.28;;
60993;SDS011;47611;54.932;73.338;2022-07-29T14:09:18;9.30;;;6.13;;
60993;SDS011;47611;54.932;73.338;2022-07-29T14:11:44;7.50;;;6.30;;
60993;SDS011;47611;54.932;73.338;2022-07-29T14:15:10;7.75;;;6.68;;
60993;SDS011;47611;54.932;73.338;2022-07-29T14:18:36;7.68;;;6.10;;
60993;SDS011;47611;54.932;73.338;2022-07-29T14:22:04;13.65;;;9.60;;
60993;SDS011;47611;54.932;73.338;2022-07-29T14:25:31;9.77;;;6.45;;
60993;SDS011;47611;54.932;73.338;2022-07-29T14:28:57;10.13;;;6.32;;
60993;SDS011;47611;54.932;73.338;2022-07-29T14:32:34;9.20;;;5.70;;
60993;SDS011;47611;54.932;73.338;2022-07-29T14:35:10;6.72;;;5.85;;
60993;SDS011;47611;54.932;73.338;2022-07-29T14:37:40;7.75;;;6.00;;
60993;SDS011;47611;54.932;73.338;2022-07-29T14:40:12;6.10;;;5.50;;
60993;SDS011;47611;54.932;73.338;2022-07-29T14:42:38;8.00;;;5.68;;
60993;SDS011;47611;54.932;73.338;2022-07-29T14:45:05;7.97;;;5.10;;
60993;SDS011;47611;54.932;73.338;2022-07-29T14:47:32;7.05;;;5.28;;
60993;SDS011;47611;54.932;73.338;2022-07-29T14:49:58;7.97;;;5.88;;
60993;SDS011;47611;54.932;73.338;2022-07-29T14:52:42;6.82;;;5.63;;
60993;SDS011;47611;54.932;73.338;2022-07-29T14:55:08;5.93;;;5.32;;
60993;SDS011;47611;54.932;73.338;2022-07-29T14:57:56;6.25;;;5.65;;
60993;SDS011;47611;54.932;73.338;2022-07-29T15:00:32;8.23;;;5.63;;
60993;SDS011;47611;54.932;73.338;2022-07-29T15:02:59;9.13;;;6.38;;
60993;SDS011;47611;54.932;73.338;2022-07-29T15:05:35;6.93;;;5.90;;
60993;SDS011;47611;54.932;73.338;2022-07-29T15:08:02;11.65;;;6.38;;
60993;SDS011;47611;54.932;73.338;2022-07-29T15:10:34;7.28;;;5.97;;
60993;SDS011;47611;54.932;73.338;2022-07-29T15:13:06;7.30;;;5.93;;
60993;SDS011;47611;54.932;73.338;2022-07-29T15:15:32;8.38;;;6.32;;
60993;SDS011;47611;54.932;73.338;2022-07-29T15:18:08;9.38;;;7.13;;
60993;SDS011;47611;54.932;73.338;2022-07-29T15:20:39;8.10;;;6.20;;
60993;SDS011;47611;54.932;73.338;2022-07-29T15:23:06;7.28;;;6.30;;
60993;SDS011;47611;54.932;73.338;2022-07-29T15:25:40;9.80;;;5.93;;
60993;SDS011;47611;54.932;73.338;2022-07-29T15:28:06;7.25;;;5.65;;
60993;SDS011;47611;54.932;73.338;2022-07-29T15:30:33;6.20;;;5.40;;
60993;SDS011;47611;54.932;73.338;2022-07-29T15:33:07;7.30;;;4.90;;
60993;SDS011;47611;54.932;73.338;2022-07-29T15:35:47;8.50;;;6.10;;
60993;SDS011;47611;54.932;73.338;2022-07-29T15:38:13;7.80;;;4.93;;
60993;SDS011;47611;54.932;73.338;2022-07-29T15:40:39;8.35;;;5.70;;
60993;SDS011;47611;54.932;73.338;2022-07-29T15:43:06;8.70;;;5.00;;
60993;SDS011;47611;54.932;73.338;2022-07-29T15:45:36;7.63;;;4.88;;
60993;SDS011;47611;54.932;73.338;2022-07-29T15:48:08;8.57;;;5.05;;
60993;SDS011;47611;54.932;73.338;2022-07-29T15:50:35;5.88;;;5.28;;
60993;SDS011;47611;54.932;73.338;2022-07-29T15:53:07;8.98;;;5.30;;
60993;SDS011;47611;54.932;73.338;2022-07-29T15:55:43;6.03;;;5.18;;
60993;SDS011;47611;54.932;73.338;2022-07-29T15:58:10;6.57;;;5.68;;
60993;SDS011;47611;54.932;73.338;2022-07-29T16:00:45;9.93;;;5.20;;
60993;SDS011;47611;54.932;73.338;2022-07-29T16:03:11;8.63;;;5.35;;
60993;SDS011;47611;54.932;73.338;2022-07-29T16:05:38;7.88;;;5.32;;
60993;SDS011;47611;54.932;73.338;2022-07-29T16:08:04;5.47;;;4.65;;
60993;SDS011;47611;54.932;73.338;2022-07-29T16:10:40;6.38;;;4.63;;